Lanchester, United Kingdom
Current Conditions -  °F | °C
As of 7:50 PM on Friday 31 Oct 2014 (Local Time) from EGNT Reporting Station
Few Clouds Few Clouds  
Wind Chill: 16°   Ceiling: Unl
Heat Index: 16°   Visibility: 6mi
Dew Point: 13°   Wind: 7mph
Humidity: 82%   Direction: 160°SSE
Pressure: 29.71"   Gusts: NA
Location:  54.82°N, 1.74°W
Report Text: EGNT 311950Z 16006KT 120V200 9999 FEW030 16/13 Q1006
Loading
Personal Weather Stations






























Interactive Weather Map
Tropical Storm Tracking
New forecast layout! Learn more

10-Day Weather Forecast

Advertisements
Track Severe Weather on mobile